createdAt,value
2023-05-12T00:00:39.171Z,0.55
2023-05-12T00:01:39.208Z,0.77
2023-05-12T00:02:39.311Z,0.60
2023-05-12T00:03:39.315Z,0.28
2023-05-12T00:04:39.273Z,0.67
2023-05-12T00:05:39.271Z,0.39
2023-05-12T00:06:39.298Z,0.48
2023-05-12T00:07:39.296Z,0.63
2023-05-12T00:08:39.343Z,0.50
2023-05-12T00:09:39.335Z,0.64
2023-05-12T00:10:39.368Z,0.43
2023-05-12T00:11:39.423Z,0.57
2023-05-12T00:12:39.423Z,0.52
2023-05-12T00:13:39.492Z,0.93
2023-05-12T00:14:39.487Z,0.61
2023-05-12T00:15:39.501Z,0.50
2023-05-12T00:16:39.557Z,0.68
2023-05-12T00:17:39.589Z,0.77
2023-05-12T00:18:39.595Z,0.60
2023-05-12T00:19:39.604Z,0.64
2023-05-12T00:20:39.619Z,0.58
2023-05-12T00:21:39.645Z,0.45
2023-05-12T00:22:39.733Z,0.47
2023-05-12T00:23:39.707Z,0.73
2023-05-12T00:24:39.705Z,0.59
2023-05-12T00:25:39.723Z,0.62
2023-05-12T00:26:39.752Z,0.59
2023-05-12T00:27:39.781Z,0.62
2023-05-12T00:28:39.816Z,0.76
2023-05-12T00:29:39.828Z,0.62
2023-05-12T00:30:39.859Z,0.71
2023-05-12T00:31:39.948Z,0.51
2023-05-12T00:32:40.015Z,0.53
2023-05-12T00:33:40.037Z,0.56
2023-05-12T00:34:40.048Z,0.54
2023-05-12T00:35:40.109Z,0.58
2023-05-12T00:36:40.112Z,0.51
2023-05-12T00:37:40.114Z,0.65
2023-05-12T00:38:40.144Z,0.56
2023-05-12T00:39:40.170Z,0.52
2023-05-12T00:40:40.228Z,0.69
2023-05-12T00:41:40.243Z,0.48
2023-05-12T00:42:40.285Z,0.54
2023-05-12T00:43:40.306Z,0.64
2023-05-12T00:44:40.303Z,0.53
2023-05-12T00:45:40.408Z,0.55
2023-05-12T00:46:40.432Z,0.56
2023-05-12T00:47:40.499Z,0.60
2023-05-12T00:48:40.531Z,0.61
2023-05-12T00:49:40.532Z,0.34
2023-05-12T00:50:40.556Z,0.60
2023-05-12T00:51:40.585Z,0.51
2023-05-12T00:52:40.597Z,0.67
2023-05-12T00:53:48.989Z,0.50
2023-05-12T00:54:41.623Z,0.48
2023-05-12T00:55:40.613Z,0.60
2023-05-12T00:56:40.612Z,0.38
2023-05-12T00:57:40.629Z,0.42
2023-05-12T00:58:40.614Z,0.61
2023-05-12T00:59:40.581Z,0.58
2023-05-12T01:00:40.599Z,0.60
2023-05-12T01:01:40.731Z,0.62
2023-05-12T01:02:40.659Z,0.30
2023-05-12T01:03:40.582Z,0.59
2023-05-12T01:04:40.548Z,0.60
2023-05-12T01:05:40.573Z,0.37
2023-05-12T01:06:40.542Z,0.42
2023-05-12T01:07:40.553Z,0.64
2023-05-12T01:08:40.558Z,0.57
2023-05-12T01:09:40.570Z,0.41
2023-05-12T01:10:40.612Z,0.57
2023-05-12T01:11:40.597Z,0.45
2023-05-12T01:12:40.623Z,0.69
2023-05-12T01:13:40.638Z,0.37
2023-05-12T01:14:40.641Z,0.78
2023-05-12T01:15:40.682Z,0.51
2023-05-12T01:16:40.672Z,0.47
2023-05-12T01:18:44.075Z,0.39
2023-05-12T01:19:44.144Z,0.55
2023-05-12T01:20:44.287Z,0.61
2023-05-12T01:21:44.443Z,0.69
2023-05-12T01:22:44.469Z,0.55
2023-05-12T01:23:44.603Z,0.45
2023-05-12T01:24:44.588Z,0.59
2023-05-12T01:25:44.686Z,0.52
2023-05-12T01:26:44.659Z,0.40
2023-05-12T01:27:44.660Z,0.65
2023-05-12T01:28:44.742Z,0.66
2023-05-12T01:29:44.641Z,0.59
2023-05-12T01:30:44.737Z,0.79
2023-05-12T01:31:44.792Z,0.50
2023-05-12T01:32:44.624Z,0.81
2023-05-12T01:33:44.628Z,0.78
2023-05-12T01:34:44.616Z,0.65
2023-05-12T01:35:44.614Z,0.81
2023-05-12T01:36:44.606Z,0.78
2023-05-12T01:37:44.586Z,0.47
2023-05-12T01:38:44.601Z,0.86
2023-05-12T01:39:44.577Z,0.79
2023-05-12T01:40:44.576Z,0.61
2023-05-12T01:41:44.599Z,0.72
2023-05-12T01:42:44.547Z,0.82
2023-05-12T01:43:44.552Z,1.04
2023-05-12T01:44:44.529Z,0.89
2023-05-12T01:45:44.526Z,0.88
2023-05-12T01:46:44.557Z,0.96
2023-05-12T01:47:44.558Z,0.89
2023-05-12T01:48:44.518Z,0.73
2023-05-12T01:49:44.519Z,0.75
2023-05-12T01:50:44.516Z,0.72
2023-05-12T01:51:44.487Z,1.00
2023-05-12T01:52:44.497Z,0.91
2023-05-12T01:53:44.477Z,0.67
2023-05-12T01:54:44.458Z,0.56
2023-05-12T01:55:44.520Z,0.72
2023-05-12T01:56:44.589Z,0.90
2023-05-12T01:57:44.659Z,0.98
2023-05-12T01:58:44.704Z,0.77
2023-05-12T01:59:44.691Z,0.78
2023-05-12T02:00:44.706Z,0.83
2023-05-12T02:01:44.844Z,0.69
2023-05-12T02:02:44.907Z,0.74
2023-05-12T02:03:44.958Z,0.76
2023-05-12T02:04:44.935Z,0.54
2023-05-12T02:05:45.012Z,0.82
2023-05-12T02:06:45.063Z,0.75
2023-05-12T02:07:45.085Z,0.90
2023-05-12T02:08:45.155Z,0.73
2023-05-12T02:09:45.178Z,0.69
2023-05-12T02:10:45.191Z,0.93
2023-05-12T02:11:45.257Z,0.77
2023-05-12T02:12:45.334Z,0.75
2023-05-12T02:13:45.412Z,1.04
2023-05-12T02:14:45.409Z,1.04
2023-05-12T02:15:45.491Z,0.84
2023-05-12T02:16:45.570Z,1.08
2023-05-12T02:17:45.758Z,0.97
2023-05-12T02:18:45.694Z,0.86
2023-05-12T02:19:45.734Z,0.93
2023-05-12T02:20:45.851Z,0.90
2023-05-12T02:21:45.905Z,1.11
2023-05-12T02:22:45.957Z,0.92
2023-05-12T02:23:46.029Z,0.69
2023-05-12T02:24:46.050Z,0.88
2023-05-12T02:25:46.092Z,0.74
2023-05-12T02:26:46.201Z,1.00
2023-05-12T02:27:46.213Z,0.93
2023-05-12T02:28:46.299Z,0.82
2023-05-12T02:29:46.339Z,1.08
2023-05-12T02:30:46.402Z,1.03
2023-05-12T02:31:46.464Z,1.25
2023-05-12T02:32:46.592Z,0.96
2023-05-12T02:33:46.577Z,0.94
2023-05-12T02:34:46.608Z,1.13
2023-05-12T02:35:46.691Z,0.83
2023-05-12T02:36:46.798Z,0.83
2023-05-12T02:37:46.793Z,0.89
2023-05-12T02:38:46.847Z,0.97
2023-05-12T02:39:46.893Z,0.93
2023-05-12T02:40:46.987Z,1.04
2023-05-12T02:41:47.047Z,0.95
2023-05-12T02:42:47.051Z,1.03
2023-05-12T02:43:47.083Z,0.73
2023-05-12T02:44:47.255Z,1.22
2023-05-12T02:45:47.250Z,0.95
2023-05-12T02:46:47.243Z,0.86
2023-05-12T02:47:47.357Z,1.09
2023-05-12T02:48:47.362Z,0.97
2023-05-12T02:49:47.429Z,1.19
2023-05-12T02:50:47.472Z,0.96
2023-05-12T02:51:47.549Z,1.14
2023-05-12T02:52:47.621Z,1.20
2023-05-12T02:53:47.604Z,1.39
2023-05-12T02:54:47.648Z,0.98
2023-05-12T02:55:47.770Z,1.21
2023-05-12T02:56:47.790Z,1.18
2023-05-12T02:57:47.849Z,1.19
2023-05-12T02:58:47.926Z,1.33
2023-05-12T02:59:47.965Z,0.97
2023-05-12T03:00:51.989Z,0.77
2023-05-12T03:01:49.107Z,1.15
2023-05-12T03:02:48.094Z,1.14
2023-05-12T03:03:48.218Z,1.31
2023-05-12T03:04:48.010Z,1.19
2023-05-12T03:05:48.001Z,1.20
2023-05-12T03:06:47.983Z,1.30
2023-05-12T03:07:47.973Z,1.24
2023-05-12T03:08:47.981Z,1.11
2023-05-12T03:09:47.966Z,0.89
2023-05-12T03:10:48.011Z,1.05
2023-05-12T03:11:48.195Z,1.34
2023-05-12T03:12:48.127Z,1.00
2023-05-12T03:13:48.203Z,0.96
2023-05-12T03:14:48.246Z,1.17
2023-05-12T03:15:48.296Z,0.95
2023-05-12T03:16:48.446Z,0.97
2023-05-12T03:17:48.510Z,1.14
2023-05-12T03:18:48.562Z,1.01
2023-05-12T03:19:48.525Z,1.03
2023-05-12T03:20:48.588Z,0.98
2023-05-12T03:21:48.655Z,0.95
2023-05-12T03:22:48.735Z,1.23
2023-05-12T03:23:48.790Z,1.26
2023-05-12T03:24:48.850Z,1.08
2023-05-12T03:25:48.893Z,0.95
2023-05-12T03:26:48.963Z,0.91
2023-05-12T03:27:48.996Z,1.12
2023-05-12T03:28:49.090Z,1.11
2023-05-12T03:29:49.133Z,0.94
2023-05-12T03:30:49.207Z,1.34
2023-05-12T03:31:49.363Z,1.09
2023-05-12T03:32:49.338Z,1.19
2023-05-12T03:33:49.350Z,1.10
2023-05-12T03:34:49.403Z,0.91
2023-05-12T03:35:49.462Z,0.96
2023-05-12T03:36:49.485Z,1.21
2023-05-12T03:37:49.547Z,0.99
2023-05-12T03:38:49.596Z,1.29
2023-05-12T03:39:49.655Z,0.88
2023-05-12T03:40:49.713Z,0.79
2023-05-12T03:41:49.747Z,0.84
2023-05-12T03:42:49.805Z,0.93
2023-05-12T03:43:49.844Z,0.94
2023-05-12T03:44:49.908Z,1.05
2023-05-12T03:45:49.986Z,1.06
2023-05-12T03:46:50.142Z,1.11
2023-05-12T03:47:50.217Z,1.43
2023-05-12T03:48:50.210Z,0.94
2023-05-12T03:49:50.137Z,1.12
2023-05-12T03:50:50.213Z,1.18
2023-05-12T03:51:50.223Z,0.96
2023-05-12T03:52:50.299Z,1.49
2023-05-12T03:53:50.341Z,1.06
2023-05-12T03:54:50.388Z,1.00
2023-05-12T03:55:50.466Z,1.20
2023-05-12T03:56:50.527Z,1.07
2023-05-12T03:57:50.521Z,1.13
2023-05-12T03:58:50.560Z,0.95
2023-05-12T03:59:50.621Z,0.86
2023-05-12T04:00:50.710Z,0.99
2023-05-12T04:01:50.746Z,0.92
2023-05-12T04:02:50.850Z,0.90
2023-05-12T04:03:50.920Z,1.08
2023-05-12T04:04:50.931Z,0.90
2023-05-12T04:05:50.987Z,1.02
2023-05-12T04:06:51.063Z,0.96
2023-05-12T04:07:51.086Z,0.93
2023-05-12T04:08:51.147Z,0.92
2023-05-12T04:09:51.189Z,1.41
2023-05-12T04:10:51.193Z,0.87
2023-05-12T04:11:51.255Z,1.27
2023-05-12T04:12:51.315Z,1.53
2023-05-12T04:13:51.383Z,0.87
2023-05-12T04:14:51.465Z,1.32
2023-05-12T04:15:51.503Z,0.86
2023-05-12T04:16:51.705Z,1.13
2023-05-12T04:17:51.580Z,0.93
2023-05-12T04:18:51.625Z,1.09
2023-05-12T04:19:51.699Z,1.07
2023-05-12T04:20:51.773Z,0.81
2023-05-12T04:21:51.814Z,0.99
2023-05-12T04:22:51.867Z,1.01
2023-05-12T04:23:51.937Z,1.31
2023-05-12T04:24:51.984Z,1.15
2023-05-12T04:25:52.059Z,1.10
2023-05-12T04:26:52.085Z,0.94
2023-05-12T04:27:52.061Z,1.10
2023-05-12T04:28:52.110Z,1.02
2023-05-12T04:29:52.170Z,0.89
2023-05-12T04:30:52.225Z,1.00
2023-05-12T04:31:52.332Z,1.14
2023-05-12T04:32:52.399Z,1.03
2023-05-12T04:33:52.443Z,0.87
2023-05-12T04:34:52.470Z,1.59
2023-05-12T04:35:52.504Z,1.10
2023-05-12T04:36:52.566Z,1.15
2023-05-12T04:37:52.639Z,0.94
2023-05-12T04:38:52.653Z,1.25
2023-05-12T04:39:52.734Z,1.21
2023-05-12T04:40:52.755Z,1.01
2023-05-12T04:41:52.821Z,1.14
2023-05-12T04:42:52.880Z,1.14
2023-05-12T04:44:52.927Z,1.09
2023-05-12T04:45:52.970Z,1.01
2023-05-12T04:46:52.930Z,1.15
2023-05-12T04:47:52.974Z,1.03
2023-05-12T04:48:52.901Z,1.22
2023-05-12T04:49:52.896Z,0.98
2023-05-12T04:50:52.904Z,1.33
2023-05-12T04:51:52.910Z,1.07
2023-05-12T04:52:52.877Z,1.15
2023-05-12T04:53:52.867Z,1.17
2023-05-12T04:54:52.873Z,0.77
2023-05-12T04:55:52.862Z,0.82
2023-05-12T04:56:52.877Z,0.90
2023-05-12T04:57:52.871Z,1.06
2023-05-12T04:58:52.853Z,0.98
2023-05-12T04:59:52.849Z,1.03
2023-05-12T05:00:52.821Z,1.14
2023-05-12T05:01:52.934Z,0.75
2023-05-12T05:02:53.081Z,1.10
2023-05-12T05:03:52.993Z,1.15
2023-05-12T05:04:52.813Z,0.85
2023-05-12T05:05:52.806Z,1.38
2023-05-12T05:06:52.794Z,1.35
2023-05-12T05:07:52.791Z,1.27
2023-05-12T05:08:52.809Z,0.98
2023-05-12T05:09:52.789Z,1.11
2023-05-12T05:10:52.764Z,1.11
2023-05-12T05:11:52.785Z,1.36
2023-05-12T05:12:52.764Z,0.92
2023-05-12T05:13:52.787Z,0.99
2023-05-12T05:14:52.759Z,1.13
2023-05-12T05:15:52.763Z,0.92
2023-05-12T05:16:52.798Z,1.15
2023-05-12T05:17:52.749Z,0.99
2023-05-12T05:18:52.860Z,1.09
2023-05-12T05:19:57.428Z,1.15
2023-05-12T05:20:57.199Z,0.98
2023-05-12T05:21:53.736Z,0.98
2023-05-12T05:22:52.711Z,0.81
2023-05-12T05:23:52.703Z,0.90
2023-05-12T05:24:52.754Z,1.15
2023-05-12T05:25:52.674Z,1.03
2023-05-12T05:26:52.663Z,0.97
2023-05-12T05:27:52.684Z,0.93
2023-05-12T05:28:52.658Z,1.17
2023-05-12T05:29:52.688Z,1.08
2023-05-12T05:30:52.693Z,1.19
2023-05-12T05:31:52.717Z,1.08
2023-05-12T05:32:53.206Z,1.29
2023-05-12T05:33:52.694Z,1.20
2023-05-12T05:34:52.621Z,1.44
2023-05-12T05:35:52.603Z,1.69
2023-05-12T05:36:52.591Z,1.33
2023-05-12T05:37:52.585Z,1.65
2023-05-12T05:38:52.591Z,1.53
2023-05-12T05:39:52.590Z,1.47
2023-05-12T05:40:54.107Z,1.55
2023-05-12T05:41:52.549Z,1.59
2023-05-12T05:42:52.558Z,1.57
2023-05-12T05:43:52.536Z,1.41
2023-05-12T05:44:52.541Z,1.46
2023-05-12T05:45:52.549Z,1.37
2023-05-12T05:46:52.541Z,1.15
2023-05-12T05:47:52.748Z,1.36
2023-05-12T05:48:52.562Z,1.40
2023-05-12T05:49:52.595Z,1.51
2023-05-12T05:50:52.694Z,1.49
2023-05-12T05:51:52.641Z,2.16
2023-05-12T05:52:52.657Z,1.09
2023-05-12T05:53:52.693Z,1.40
2023-05-12T05:54:52.675Z,1.41
2023-05-12T05:55:52.693Z,1.05
2023-05-12T05:56:52.744Z,1.53
2023-05-12T05:57:52.727Z,1.40
2023-05-12T05:58:52.746Z,1.16
2023-05-12T05:59:52.774Z,1.28
2023-05-12T06:00:52.789Z,1.52
2023-05-12T06:01:52.792Z,1.43
2023-05-12T06:02:52.935Z,1.54
2023-05-12T06:03:52.875Z,1.15
2023-05-12T06:04:52.851Z,1.22
2023-05-12T06:05:52.923Z,1.60
2023-05-12T06:06:52.846Z,1.11
2023-05-12T06:07:52.970Z,1.31
2023-05-12T06:08:52.866Z,1.47
2023-05-12T06:09:53.038Z,1.68
2023-05-12T06:10:52.858Z,1.46
2023-05-12T06:11:52.888Z,1.06
2023-05-12T06:12:53.161Z,1.15
2023-05-12T06:13:52.904Z,1.47
2023-05-12T06:14:52.922Z,1.55
2023-05-12T06:15:52.934Z,1.30
2023-05-12T06:16:52.998Z,1.29
2023-05-12T06:17:53.016Z,2.05
2023-05-12T06:18:53.022Z,1.01
2023-05-12T06:19:52.964Z,1.09
2023-05-12T06:20:52.995Z,1.36
2023-05-12T06:21:53.041Z,1.23
2023-05-12T06:22:53.008Z,1.35
2023-05-12T06:23:53.021Z,1.23
2023-05-12T06:24:53.041Z,1.59
2023-05-12T06:25:53.031Z,1.15
2023-05-12T06:26:53.069Z,1.20
2023-05-12T06:27:53.078Z,1.07
2023-05-12T06:28:53.111Z,1.44
2023-05-12T06:29:53.182Z,1.19
2023-05-12T06:30:53.138Z,1.13
2023-05-12T06:31:53.185Z,1.24
2023-05-12T06:32:53.704Z,0.92
2023-05-12T06:33:53.150Z,1.22
2023-05-12T06:34:53.162Z,0.93
2023-05-12T06:35:53.151Z,1.76
2023-05-12T06:36:54.899Z,1.35
2023-05-12T06:37:53.358Z,2.05
2023-05-12T06:38:53.197Z,1.51
2023-05-12T06:39:53.225Z,1.46
2023-05-12T06:40:53.275Z,1.35
2023-05-12T06:41:53.289Z,1.44
2023-05-12T06:42:53.326Z,1.51
2023-05-12T06:43:53.393Z,1.47
2023-05-12T06:44:53.451Z,1.60
2023-05-12T06:45:53.453Z,3.04
2023-05-12T06:46:53.465Z,3.18
2023-05-12T06:47:53.705Z,2.36
2023-05-12T06:48:53.612Z,1.93
2023-05-12T06:49:53.558Z,1.93
2023-05-12T06:50:53.496Z,1.85
2023-05-12T06:51:53.495Z,2.14
2023-05-12T06:52:53.547Z,2.05
2023-05-12T06:53:53.526Z,1.80
2023-05-12T06:54:53.545Z,1.71
2023-05-12T06:55:53.552Z,1.49
2023-05-12T06:56:53.543Z,1.35
2023-05-12T06:57:53.657Z,1.42
2023-05-12T06:58:53.612Z,1.24
2023-05-12T06:59:53.635Z,1.41
2023-05-12T07:00:53.697Z,1.27
2023-05-12T07:01:53.915Z,1.35
2023-05-12T07:02:53.940Z,1.52
2023-05-12T07:03:53.886Z,1.18
2023-05-12T07:04:53.936Z,1.61
2023-05-12T07:05:53.994Z,1.34
2023-05-12T07:06:54.079Z,1.44
2023-05-12T07:07:54.095Z,1.22
2023-05-12T07:08:54.131Z,1.19
2023-05-12T07:09:54.182Z,0.94
2023-05-12T07:10:54.223Z,1.44
2023-05-12T07:11:55.133Z,1.13
2023-05-12T07:12:54.298Z,1.39
2023-05-12T07:13:54.407Z,1.18
2023-05-12T07:14:54.412Z,1.15
2023-05-12T07:15:54.458Z,1.36
2023-05-12T07:16:54.499Z,1.25
2023-05-12T07:17:54.745Z,1.52
2023-05-12T07:18:54.770Z,1.48
2023-05-12T07:19:54.685Z,1.42
2023-05-12T07:20:54.743Z,1.09
2023-05-12T07:21:54.778Z,1.17
2023-05-12T07:22:54.895Z,1.29
2023-05-12T07:23:54.871Z,1.19
2023-05-12T07:24:54.942Z,1.25
2023-05-12T07:25:54.959Z,1.04
2023-05-12T07:26:55.049Z,1.61
2023-05-12T07:27:55.087Z,1.61
2023-05-12T07:28:55.096Z,1.35
2023-05-12T07:29:55.163Z,1.52
2023-05-12T07:30:55.235Z,2.04
2023-05-12T07:31:55.307Z,1.52
2023-05-12T07:32:55.590Z,1.24
2023-05-12T07:33:55.450Z,2.24
2023-05-12T07:34:55.400Z,1.47
2023-05-12T07:35:55.548Z,1.61
2023-05-12T07:36:55.447Z,1.71
2023-05-12T07:37:55.677Z,1.95
2023-05-12T07:38:55.766Z,1.66
2023-05-12T07:39:55.542Z,1.61
2023-05-12T07:40:55.579Z,1.51
2023-05-12T07:41:55.595Z,1.18
2023-05-12T07:42:55.710Z,1.51
2023-05-12T07:43:55.583Z,1.38
2023-05-12T07:44:55.600Z,1.31
2023-05-12T07:45:55.639Z,1.27
2023-05-12T07:46:55.753Z,1.52
2023-05-12T07:47:55.795Z,1.39
2023-05-12T07:48:55.739Z,1.23
2023-05-12T07:49:55.830Z,1.28
2023-05-12T07:50:55.828Z,1.43
2023-05-12T07:51:55.867Z,1.55
2023-05-12T07:52:56.178Z,1.43
2023-05-12T07:53:55.888Z,1.41
2023-05-12T07:54:55.916Z,1.70
2023-05-12T07:55:55.909Z,1.13
2023-05-12T07:56:55.963Z,0.95
2023-05-12T07:57:56.255Z,1.08
2023-05-12T07:58:55.995Z,1.43
2023-05-12T07:59:56.017Z,1.24
2023-05-12T08:00:56.048Z,1.08
2023-05-12T08:01:56.108Z,0.85
2023-05-12T08:02:56.328Z,0.91
2023-05-12T08:03:56.106Z,0.63
2023-05-12T08:04:56.082Z,0.89
2023-05-12T08:05:56.071Z,0.95
2023-05-12T08:06:56.078Z,0.68
2023-05-12T08:07:56.082Z,0.70
2023-05-12T08:08:56.110Z,0.83
2023-05-12T08:09:56.069Z,0.78
2023-05-12T08:10:56.099Z,0.87
2023-05-12T08:11:56.107Z,1.00
2023-05-12T08:12:56.140Z,0.89
2023-05-12T08:13:56.112Z,0.80
2023-05-12T08:14:56.091Z,0.77
2023-05-12T08:15:56.101Z,0.70
2023-05-12T08:16:56.177Z,0.74
2023-05-12T08:17:56.158Z,0.65
2023-05-12T08:18:56.243Z,0.84
2023-05-12T08:19:56.158Z,0.88
2023-05-12T08:20:56.181Z,0.94
2023-05-12T08:21:56.218Z,0.79
2023-05-12T08:22:56.189Z,1.03
2023-05-12T08:23:56.725Z,1.21
2023-05-12T08:24:56.198Z,0.97
2023-05-12T08:25:56.217Z,0.78
2023-05-12T08:26:56.233Z,0.98
2023-05-12T08:27:56.300Z,0.83
2023-05-12T08:28:56.262Z,1.14
2023-05-12T08:29:56.301Z,1.34
2023-05-12T08:30:56.373Z,1.27
2023-05-12T08:31:56.352Z,1.65
2023-05-12T08:32:56.403Z,1.48
2023-05-12T08:34:56.427Z,1.11
2023-05-12T08:35:56.401Z,1.18
2023-05-12T08:36:56.608Z,2.01
2023-05-12T08:37:56.761Z,1.85
2023-05-12T08:38:56.372Z,2.02
2023-05-12T08:39:56.398Z,2.45
2023-05-12T08:40:56.375Z,1.52
2023-05-12T08:41:56.368Z,1.59
2023-05-12T08:42:56.735Z,1.79
2023-05-12T08:43:56.767Z,1.24
2023-05-12T08:44:56.336Z,1.28
2023-05-12T08:45:56.359Z,1.17
2023-05-12T08:46:56.443Z,1.41
2023-05-12T08:47:56.347Z,1.65
2023-05-12T08:48:56.760Z,1.62
2023-05-12T08:49:56.283Z,1.56
2023-05-12T08:50:56.298Z,2.09
2023-05-12T08:51:57.840Z,1.47
2023-05-12T08:52:56.276Z,1.98
2023-05-12T08:53:56.302Z,2.62
2023-05-12T08:54:56.717Z,2.24
2023-05-12T08:57:09.392Z,1.59
2023-05-12T08:57:56.242Z,1.58
2023-05-12T08:58:56.719Z,1.75
2023-05-12T08:59:56.233Z,1.83
2023-05-12T09:00:56.253Z,1.37
2023-05-12T09:01:56.370Z,1.80
2023-05-12T09:02:56.269Z,1.64
2023-05-12T09:03:56.276Z,1.83
2023-05-12T09:04:56.194Z,1.67
2023-05-12T09:05:56.194Z,1.43
2023-05-12T09:06:56.182Z,1.56
2023-05-12T09:07:56.186Z,1.36
2023-05-12T09:08:56.226Z,1.18
2023-05-12T09:09:56.204Z,1.48
2023-05-12T09:10:56.185Z,1.35
2023-05-12T09:11:56.138Z,0.78
2023-05-12T09:12:56.146Z,1.15
2023-05-12T09:13:56.230Z,0.87
2023-05-12T09:14:56.127Z,0.88
2023-05-12T09:15:56.138Z,1.00
2023-05-12T09:16:56.120Z,0.93
2023-05-12T09:17:56.160Z,1.09
2023-05-12T09:18:56.181Z,1.11
2023-05-12T09:19:56.101Z,0.97
2023-05-12T09:20:56.096Z,1.09
2023-05-12T09:21:56.131Z,1.26
2023-05-12T09:22:56.104Z,0.76
2023-05-12T09:23:56.222Z,0.83
2023-05-12T09:24:56.071Z,0.70
2023-05-12T09:25:56.084Z,1.14
2023-05-12T09:26:56.198Z,0.60
2023-05-12T09:27:56.032Z,1.06
2023-05-12T09:28:56.040Z,1.59
2023-05-12T09:29:59.772Z,1.26
2023-05-12T09:30:56.016Z,1.41
2023-05-12T09:31:56.121Z,1.34
2023-05-12T09:32:56.046Z,1.36
2023-05-12T09:33:56.231Z,1.92
2023-05-12T09:34:56.020Z,1.19
2023-05-12T09:35:56.005Z,1.07
2023-05-12T09:36:55.983Z,1.38
2023-05-12T09:37:55.991Z,1.26
2023-05-12T09:38:56.225Z,1.23
2023-05-12T09:39:55.974Z,1.19
2023-05-12T09:40:55.976Z,1.31
2023-05-12T09:41:56.021Z,1.48
2023-05-12T09:42:55.948Z,1.32
2023-05-12T09:43:56.244Z,1.25
2023-05-12T09:44:55.942Z,1.11
2023-05-12T09:45:55.963Z,1.25
2023-05-12T09:46:55.930Z,1.09
2023-05-12T09:47:55.964Z,1.10
2023-05-12T09:48:56.265Z,1.43
2023-05-12T09:49:55.908Z,1.44
2023-05-12T09:50:55.894Z,1.18
2023-05-12T09:51:55.930Z,1.28
2023-05-12T09:52:55.892Z,1.80
2023-05-12T09:53:56.238Z,1.14
2023-05-12T09:54:55.876Z,1.63
2023-05-12T09:55:55.872Z,1.44
2023-05-12T09:56:56.069Z,1.67
2023-05-12T09:57:55.892Z,1.12
2023-05-12T09:58:55.883Z,1.24
2023-05-12T09:59:55.861Z,1.08
2023-05-12T10:01:55.895Z,1.18
2023-05-12T10:02:55.853Z,1.24
2023-05-12T10:03:55.901Z,1.30
2023-05-12T10:04:55.865Z,1.02
2023-05-12T10:05:55.829Z,1.12
2023-05-12T10:06:55.785Z,1.24
2023-05-12T10:07:55.797Z,1.06
2023-05-12T10:08:56.246Z,1.28
2023-05-12T10:09:55.787Z,0.83
2023-05-12T10:10:55.763Z,0.86
2023-05-12T10:11:55.758Z,1.05
2023-05-12T10:12:55.740Z,1.00
2023-05-12T10:13:56.255Z,1.21
2023-05-12T10:14:55.741Z,1.20
2023-05-12T10:15:55.744Z,1.17
2023-05-12T10:16:55.780Z,1.43
2023-05-12T10:17:55.786Z,1.33
2023-05-12T10:18:55.778Z,1.37
2023-05-12T10:19:55.699Z,1.47
2023-05-12T10:20:55.709Z,1.06
2023-05-12T10:21:55.710Z,1.57
2023-05-12T10:22:55.681Z,1.32
2023-05-12T10:23:55.774Z,2.30
2023-05-12T10:24:55.691Z,1.18
2023-05-12T10:25:55.681Z,1.30
2023-05-12T10:26:55.660Z,1.08
2023-05-12T10:27:55.656Z,1.11
2023-05-12T10:28:55.643Z,1.26
2023-05-12T10:29:55.791Z,1.15
2023-05-12T10:30:55.644Z,1.00
2023-05-12T10:31:55.741Z,0.99
2023-05-12T10:32:55.715Z,1.32
2023-05-12T10:33:55.786Z,0.84
2023-05-12T10:34:55.594Z,0.95
2023-05-12T10:35:55.599Z,1.24
2023-05-12T10:36:55.597Z,0.84
2023-05-12T10:37:55.593Z,0.94
2023-05-12T10:38:55.592Z,1.43
2023-05-12T10:39:55.722Z,1.22
2023-05-12T10:40:55.578Z,0.95
2023-05-12T10:41:55.559Z,1.10
2023-05-12T10:42:55.559Z,0.98
2023-05-12T10:43:55.571Z,0.85
2023-05-12T10:44:55.579Z,1.14
2023-05-12T10:45:55.564Z,1.08
2023-05-12T10:46:55.533Z,1.08
2023-05-12T10:47:55.542Z,0.72
2023-05-12T10:48:55.667Z,0.94
2023-05-12T10:49:55.532Z,0.91
2023-05-12T10:50:55.534Z,0.92
2023-05-12T10:51:55.564Z,0.82
2023-05-12T10:52:55.643Z,1.10
2023-05-12T10:53:55.775Z,0.83
2023-05-12T10:54:55.811Z,0.70
2023-05-12T10:55:56.021Z,0.61
2023-05-12T10:56:55.964Z,0.75
2023-05-12T10:57:56.005Z,0.64
2023-05-12T10:58:56.311Z,0.73
2023-05-12T10:59:56.042Z,0.80
2023-05-12T11:00:56.223Z,0.69
2023-05-12T11:01:56.783Z,0.71
2023-05-12T11:03:00.612Z,0.73
2023-05-12T11:03:57.322Z,0.77
2023-05-12T11:04:56.149Z,0.68
2023-05-12T11:05:56.241Z,0.71
2023-05-12T11:06:56.236Z,0.64
2023-05-12T11:07:57.019Z,0.92
2023-05-12T11:08:56.922Z,0.75
2023-05-12T11:09:59.388Z,0.75
2023-05-12T11:10:56.035Z,0.96
2023-05-12T11:11:56.559Z,1.13
2023-05-12T11:12:56.008Z,1.11
2023-05-12T11:13:56.004Z,1.50
2023-05-12T11:14:56.322Z,0.91
2023-05-12T11:15:56.023Z,0.87
2023-05-12T11:16:55.996Z,0.65
2023-05-12T11:17:56.001Z,0.73
2023-05-12T11:18:55.977Z,0.67
2023-05-12T11:19:56.266Z,0.75
2023-05-12T11:20:55.972Z,0.62
2023-05-12T11:21:55.957Z,0.88
2023-05-12T11:22:55.972Z,0.74
2023-05-12T11:23:56.025Z,0.58
2023-05-12T11:24:56.354Z,0.80
2023-05-12T11:25:56.215Z,1.18
2023-05-12T11:26:56.197Z,0.75
2023-05-12T11:27:56.221Z,0.50
2023-05-12T11:28:56.262Z,0.97
2023-05-12T11:29:56.334Z,0.74
2023-05-12T11:30:56.371Z,0.56
2023-05-12T11:31:56.436Z,0.61
2023-05-12T11:32:56.515Z,0.79
2023-05-12T11:34:10.751Z,0.67
2023-05-12T11:34:57.517Z,0.57
2023-05-12T11:35:56.523Z,0.61
2023-05-12T11:36:56.495Z,0.60
2023-05-12T11:37:56.496Z,0.57
2023-05-12T11:38:56.512Z,0.55
2023-05-12T11:39:56.633Z,0.77
2023-05-12T11:40:56.496Z,0.57
2023-05-12T11:42:02.326Z,0.67
2023-05-12T11:42:57.474Z,0.91
2023-05-12T11:43:56.456Z,0.72
2023-05-12T11:44:56.454Z,0.80
2023-05-12T11:45:56.475Z,0.57
2023-05-12T11:46:56.455Z,0.54
2023-05-12T11:47:58.074Z,0.88
2023-05-12T11:48:56.449Z,0.81
2023-05-12T11:49:56.514Z,0.46
2023-05-12T11:50:56.416Z,0.56
2023-05-12T11:51:56.405Z,0.84
2023-05-12T11:52:56.422Z,0.45
2023-05-12T11:53:56.405Z,0.54
2023-05-12T11:54:56.427Z,1.10
2023-05-12T11:55:56.401Z,0.55
2023-05-12T11:56:56.386Z,0.44
2023-05-12T11:57:56.383Z,0.73
2023-05-12T11:58:56.365Z,0.50
2023-05-12T11:59:56.390Z,0.68
2023-05-12T12:00:56.340Z,0.60
2023-05-12T12:01:56.361Z,0.56
2023-05-12T12:02:56.428Z,0.31
2023-05-12T12:03:56.478Z,0.59
2023-05-12T12:04:56.819Z,0.66
2023-05-12T12:05:56.381Z,0.57
2023-05-12T12:06:56.327Z,0.44
2023-05-12T12:07:56.309Z,0.36
2023-05-12T12:08:56.308Z,0.46
2023-05-12T12:09:56.796Z,0.49
2023-05-12T12:10:56.283Z,0.47
2023-05-12T12:11:56.294Z,0.66
2023-05-12T12:12:56.286Z,0.44
2023-05-12T12:13:56.271Z,0.78
2023-05-12T12:14:56.256Z,0.30
2023-05-12T12:15:56.276Z,0.47
2023-05-12T12:16:56.243Z,0.50
2023-05-12T12:17:56.295Z,0.44
2023-05-12T12:18:56.317Z,0.30
2023-05-12T12:19:56.258Z,0.29
2023-05-12T12:20:56.232Z,0.51
2023-05-12T12:21:56.276Z,0.35
2023-05-12T12:22:56.204Z,0.32
2023-05-12T12:23:56.207Z,0.36
2023-05-12T12:24:56.320Z,0.48
2023-05-12T12:25:56.213Z,0.38
2023-05-12T12:26:56.191Z,0.39
2023-05-12T12:27:56.199Z,0.32
2023-05-12T12:28:56.188Z,0.29
2023-05-12T12:29:56.188Z,0.32
2023-05-12T12:30:56.188Z,0.36
2023-05-12T12:31:56.156Z,0.20
2023-05-12T12:32:56.185Z,0.23
2023-05-12T12:33:56.154Z,0.25
2023-05-12T12:34:56.194Z,0.27
2023-05-12T12:35:56.144Z,0.26
2023-05-12T12:36:56.132Z,0.27
2023-05-12T12:37:56.128Z,0.35
2023-05-12T12:38:56.127Z,0.39
2023-05-12T12:39:56.130Z,0.37
2023-05-12T12:40:56.117Z,0.22
2023-05-12T12:41:56.103Z,0.22
2023-05-12T12:42:56.099Z,0.37
2023-05-12T12:43:56.106Z,0.24
2023-05-12T12:44:56.091Z,0.43
2023-05-12T12:45:56.077Z,0.44
2023-05-12T12:46:56.098Z,0.17
2023-05-12T12:47:56.092Z,0.26
2023-05-12T12:48:56.065Z,0.27
2023-05-12T12:49:56.076Z,0.26
2023-05-12T12:50:56.056Z,0.18
2023-05-12T12:51:56.069Z,0.33
2023-05-12T12:52:56.041Z,0.21
2023-05-12T12:53:56.034Z,0.25
2023-05-12T12:54:56.051Z,0.16
2023-05-12T12:55:56.052Z,0.28
2023-05-12T12:56:56.042Z,0.19
2023-05-12T12:57:55.994Z,0.15
2023-05-12T12:58:55.997Z,0.23
2023-05-12T12:59:56.036Z,0.19
2023-05-12T13:00:56.024Z,0.24
2023-05-12T13:01:56.013Z,0.29
2023-05-12T13:02:56.073Z,0.20
2023-05-12T13:03:55.965Z,0.21
2023-05-12T13:04:55.998Z,0.28
2023-05-12T13:05:55.926Z,0.24
2023-05-12T13:06:55.926Z,0.23
2023-05-12T13:07:55.921Z,0.25
2023-05-12T13:08:55.928Z,0.19
2023-05-12T13:09:55.917Z,0.13
2023-05-12T13:10:55.912Z,0.24
2023-05-12T13:11:55.916Z,0.24
2023-05-12T13:12:55.889Z,0.22
2023-05-12T13:13:55.904Z,0.33
2023-05-12T13:14:55.886Z,0.27
2023-05-12T13:15:55.893Z,0.23
2023-05-12T13:16:55.899Z,0.11
2023-05-12T13:17:55.904Z,0.09
2023-05-12T13:18:55.904Z,0.24
2023-05-12T13:19:55.878Z,0.30
2023-05-12T13:20:55.855Z,0.21
2023-05-12T13:21:55.886Z,0.48
2023-05-12T13:22:55.830Z,0.16
2023-05-12T13:23:55.850Z,0.15